Susanne.pairtrawler — DETY — position and weather

sailwx.info

Track history (hours):
 
Tides and Currents Weather Stations Pressure Air Temp Water Temp Dewpoint Dewpoint Depression Visibility Wind Speed Wind Dir Waves Ship Positions

Susanne.pairtrawler

Last reported at 2016-Aug-30 21:31 UTC. Time now 2016-Aug-31 21:51 UTC.
Position N 57°59' E 005°38'.

Length 40 m; draft 5 m.

Type: Fishing. MMSI: 211227510.

Date/timePositionNaut miles runAvg speedWind from/ knotsBaromVisibWave heightAir tempDewpointWater temp
2016-Aug-30 21:31N 57°59' E 005°38'2310.9
2016-Aug-30 19:25N 57°44' E 006°11'910.9
2016-Aug-30 18:34N 57°39' E 006°26'1110.8
2016-Aug-30 17:33N 57°32' E 006°41'2410.0
2016-Aug-30 15:10N 57°27' E 007°25'8 9.5
2016-Aug-30 14:17N 57°26' E 007°40'7 9.8
2016-Aug-30 13:34N 57°23' E 007°52'28 6.3
2016-Aug-30 09:05N 57°07' E 008°35'0 0.0
2016-Aug-30 08:34N 57°07' E 008°35'0 0.0
2016-Aug-30 07:34N 57°07' E 008°35'0 0.0
2016-Aug-30 06:34N 57°07' E 008°35'0 0.0
2016-Aug-29 10:31N 57°07' E 008°36'0 0.0
2016-Aug-29 09:32N 57°07' E 008°36'0 0.0
2016-Aug-29 08:32N 57°07' E 008°36'65 1.5
2016-Aug-27 12:32N 57°39' E 006°52'10 9.9
2016-Aug-27 11:33N 57°45' E 006°38'9 9.2
2016-Aug-27 10:33N 57°52' E 006°25'9 9.3
2016-Aug-27 09:33N 57°59' E 006°14'19 9.7
2016-Aug-27 07:33N 58°14' E 005°51'9 9.3
2016-Aug-27 06:34N 58°21' E 005°40'18 9.1
2016-Aug-27 04:34N 58°34' E 005°15'9 8.8
2016-Aug-27 03:34N 58°41' E 005°05'9 8.8
2016-Aug-27 02:33N 58°48' E 004°54'137 8.0
2016-Aug-26 09:31N 60°28' E 001°50'9 9.0
2016-Aug-26 08:33N 60°33' E 001°36'8 8.0
2016-Aug-26 07:34N 60°38' E 001°22'7 0.7
2016-Aug-25 22:21N 60°36' E 001°09'2 2.0
2016-Aug-25 21:31N 60°38' E 001°09'8 0.6
2016-Aug-25 08:28N 60°46' E 001°08'4 3.9
2016-Aug-25 07:34N 60°43' E 001°12'3 3.0
2016-Aug-25 06:34N 60°42' E 001°18'4 2.1
2016-Aug-25 04:33N 60°38' E 001°15'3 2.9
2016-Aug-25 03:34N 60°38' E 001°09'  
Track history (hours):
 
Tides and Currents Weather Stations Pressure Air Temp Water Temp Dewpoint Dewpoint Depression Visibility Wind Speed Wind Dir Waves Ship Positions

Susanne.pairtrawler

Last reported at 2016-Aug-30 21:31 UTC. Time now 2016-Aug-31 21:51 UTC.
Position N 57°59' E 005°38'.

Length 40 m; draft 5 m.

Type: Fishing. MMSI: 211227510.

Date/timePositionNaut miles runAvg speedWind from/ knotsBaromVisibWave heightAir tempDewpointWater temp
2016-Aug-30 21:31N 57°59' E 005°38'2310.9
2016-Aug-30 19:25N 57°44' E 006°11'910.9
2016-Aug-30 18:34N 57°39' E 006°26'1110.8
2016-Aug-30 17:33N 57°32' E 006°41'2410.0
2016-Aug-30 15:10N 57°27' E 007°25'8 9.5
2016-Aug-30 14:17N 57°26' E 007°40'7 9.8
2016-Aug-30 13:34N 57°23' E 007°52'28 6.3
2016-Aug-30 09:05N 57°07' E 008°35'0 0.0
2016-Aug-30 08:34N 57°07' E 008°35'0 0.0
2016-Aug-30 07:34N 57°07' E 008°35'0 0.0
2016-Aug-30 06:34N 57°07' E 008°35'0 0.0
2016-Aug-29 10:31N 57°07' E 008°36'0 0.0
2016-Aug-29 09:32N 57°07' E 008°36'0 0.0
2016-Aug-29 08:32N 57°07' E 008°36'65 1.5
2016-Aug-27 12:32N 57°39' E 006°52'10 9.9
2016-Aug-27 11:33N 57°45' E 006°38'9 9.2
2016-Aug-27 10:33N 57°52' E 006°25'9 9.3
2016-Aug-27 09:33N 57°59' E 006°14'19 9.7
2016-Aug-27 07:33N 58°14' E 005°51'9 9.3
2016-Aug-27 06:34N 58°21' E 005°40'18 9.1
2016-Aug-27 04:34N 58°34' E 005°15'9 8.8
2016-Aug-27 03:34N 58°41' E 005°05'9 8.8
2016-Aug-27 02:33N 58°48' E 004°54'137 8.0
2016-Aug-26 09:31N 60°28' E 001°50'9 9.0
2016-Aug-26 08:33N 60°33' E 001°36'8 8.0
2016-Aug-26 07:34N 60°38' E 001°22'7 0.7
2016-Aug-25 22:21N 60°36' E 001°09'2 2.0
2016-Aug-25 21:31N 60°38' E 001°09'8 0.6
2016-Aug-25 08:28N 60°46' E 001°08'4 3.9
2016-Aug-25 07:34N 60°43' E 001°12'3 3.0
2016-Aug-25 06:34N 60°42' E 001°18'4 2.1
2016-Aug-25 04:33N 60°38' E 001°15'3 2.9
2016-Aug-25 03:34N 60°38' E 001°09'  

Dump ship's entire track history